Latest Weather Observations for Geelong Racecourse

IDV60901

Issued at 9:45 pm EDT Sunday 23 November 2014 (issued every 10 minutes, with the page automatically refreshed every 10 minutes)

About weather observations | Map of Melbourne area stations | Latest observations for Melbourne area | Other Formats
Station Details ID: 087184 Name: GEELONG RACECOURSE Lat: -38.17 Lon: 144.38 Height: 12.9 m
Data from the previous 72 hours. | See also: Recent months at Geelong Racecourse
Date/Time
EDT
Tmp

°C
App
Tmp
°C
Dew
Point
°C
Rel
Hum
%
Delta-T

°C
Wind Press
QNH
hPa
Press
MSL
hPa
Rain
since
9 am
mm
Dir
 
Spd
km/h
Gust
km/h
Spd
kts
Gust
kts
23/09:30pm 16.0 15.0 9.0 63 3.6 ESE 4 4 2 2 1013.8 1013.8 0.0
23/09:00pm 16.1 14.9 9.5 65 3.4 E 6 9 3 5 1013.4 1013.4 0.0
23/08:30pm 16.4 15.1 10.0 66 3.4 SE 7 13 4 7 1013.4 1013.4 0.0
23/08:00pm 16.5 15.0 10.4 67 3.2 SE 9 19 5 10 1013.5 1013.5 0.0
23/07:30pm 16.7 14.0 10.5 67 3.3 SSE 15 22 8 12 1013.0 1013.0 0.0
23/07:00pm 16.9 13.2 10.3 65 3.5 S 20 28 11 15 1012.9 1012.9 0.0
23/06:30pm 17.6 14.2 10.7 64 3.7 S 19 26 10 14 1012.9 1012.9 0.0
23/06:00pm 18.0 14.6 10.4 61 4.1 SSE 19 28 10 15 1012.8 1012.8 0.0
23/05:30pm 18.3 14.9 10.4 60 4.2 S 19 26 10 14 1012.9 1012.9 0.0
23/05:00pm 18.3 14.7 10.4 60 4.2 S 20 28 11 15 1012.5 1012.5 0.0
23/04:30pm 18.6 14.4 9.7 56 4.7 S 22 30 12 16 1012.2 1012.2 0.0
23/04:00pm 19.2 15.1 10.2 56 4.8 S 22 32 12 17 1012.2 1012.2 0.0
23/03:30pm 20.2 16.2 11.7 58 4.7 SSE 24 33 13 18 1011.8 1011.8 0.0
23/03:00pm 21.0 17.6 11.3 54 5.4 S 20 30 11 16 1012.0 1012.0 0.0
23/02:30pm 20.8 16.7 10.0 50 5.8 S 22 32 12 17 1011.7 1011.7 0.0
23/02:00pm 21.0 17.5 10.8 52 5.6 S 20 28 11 15 1011.7 1011.7 0.0
23/01:30pm 21.9 17.8 11.6 52 5.7 S 24 35 13 19 1011.5 1011.5 0.0
23/01:00pm 22.5 19.5 12.4 52 5.7 S 20 28 11 15 1011.1 1011.1 0.0
23/12:30pm 22.2 20.4 12.2 53 5.7 ESE 13 19 7 10 1011.3 1011.3 0.0
23/12:00pm 23.3 22.4 10.7 45 7.0 ENE 6 11 3 6 1011.6 1011.6 0.0
23/11:30am 21.6 19.9 9.8 47 6.4 NNE 9 15 5 8 1011.9 1011.9 0.0
23/11:00am 21.6 20.1 10.4 49 6.1 NE 9 17 5 9 1012.1 1012.1 0.0
23/10:30am 20.6 20.1 10.7 53 5.4 WNW 4 7 2 4 1012.4 1012.4 0.0
23/10:00am 20.1 19.6 10.8 55 5.1 NE 4 7 2 4 1012.7 1012.7 0.0
23/09:30am 19.4 19.8 11.2 59 4.5 CALM 0 2 0 1 1012.9 1012.9 0.0
23/09:00am 18.4 18.2 11.7 65 3.7 WSW 4 7 2 4 1013.0 1013.0 0.0
23/08:30am 18.2 18.4 13.1 72 2.9 SSW 4 7 2 4 1012.7 1012.7 0.0
23/08:00am 16.4 16.1 13.3 82 1.7 WSW 7 11 4 6 1012.6 1012.6 0.0
23/07:30am 15.4 15.4 14.1 92 0.7 WSW 7 11 4 6 1012.3 1012.3 0.0
23/07:00am 14.3 14.2 13.2 93 0.6 WSW 6 7 3 4 1012.1 1012.1 0.0
23/06:30am 13.7 13.4 12.6 93 0.6 WNW 6 7 3 4 1011.7 1011.7 0.0
23/06:00am 13.7 13.2 12.6 93 0.6 WNW 7 9 4 5 1011.4 1011.4 0.0
23/05:30am 14.2 13.8 12.9 92 0.7 WNW 7 11 4 6 1011.1 1011.1 0.0
23/05:00am 14.6 14.3 13.3 92 0.7 NW 7 9 4 5 1010.9 1010.9 0.0
23/04:30am 15.3 15.1 13.7 90 0.9 WNW 7 11 4 6 1010.6 1010.6 0.0
23/04:00am 15.4 15.7 13.4 88 1.1 W 4 7 2 4 1010.5 1010.5 0.0
23/03:30am 15.6 15.2 13.1 85 1.4 WNW 7 11 4 6 1010.3 1010.3 0.0
23/03:00am 15.9 16.1 13.0 83 1.6 W 4 9 2 5 1010.2 1010.2 0.0
23/02:30am 15.9 16.0 12.8 82 1.7 WSW 4 9 2 5 1010.0 1010.0 0.0
23/02:00am 15.7 15.2 12.5 81 1.8 SW 7 11 4 6 1010.0 1010.0 0.0
23/01:30am 16.2 15.3 12.6 79 2.0 W 9 15 5 8 1009.9 1009.9 0.0
23/01:00am 16.8 14.7 12.5 76 2.4 WNW 15 20 8 11 1009.9 1009.9 0.0
23/12:30am 16.9 15.9 12.4 75 2.5 WNW 9 17 5 9 1009.8 1009.8 0.0
23/12:00am 17.2 16.7 12.5 74 2.6 W 7 11 4 6 1009.5 1009.5 0.0
 
Date/Time
EDT
Tmp

°C
App
Tmp
°C
Dew
Point
°C
Rel
Hum
%
Delta-T

°C
Wind Press
QNH
hPa
Press
MSL
hPa
Rain
since
9 am
mm
Dir
 
Spd
km/h
Gust
km/h
Spd
kts
Gust
kts
22/11:30pm 17.8 16.2 12.7 72 2.8 NW 13 19 7 10 1009.1 1009.1 0.0
22/11:00pm 18.7 17.8 12.7 68 3.4 NW 9 19 5 10 1008.9 1008.9 0.0
22/10:30pm 19.4 18.3 11.9 62 4.2 WNW 9 15 5 8 1008.8 1008.8 0.0
22/10:00pm 17.8 18.6 12.7 72 2.8 CALM 0 0 0 0 1008.3 1008.3 0.0
22/09:30pm 18.3 17.8 12.7 70 3.1 S 7 11 4 6 1007.5 1007.5 0.0
22/09:00pm 19.1 18.3 12.8 67 3.6 S 9 13 5 7 1007.1 1007.1 0.0
22/08:30pm 20.3 18.1 13.3 64 4.0 S 17 22 9 12 1006.6 1006.6 0.0
22/08:00pm 25.1 23.7 13.3 48 6.9 W 13 22 7 12 1005.2 1005.2 0.0
22/07:30pm 29.4 25.0 9.0 28 11.3 NW 22 39 12 21 1005.1 1005.1 0.0
22/07:00pm 30.2 24.3 9.1 27 11.8 NNW 30 44 16 24 1004.1 1004.1 0.0
22/06:37pm 30.8 25.0 9.6 27 12.0 NNW 30 48 16 26 1003.5 1003.5 0.0
22/06:30pm 31.4 25.6 9.6 26 12.3 NNW 30 43 16 23 1003.3 1003.3 0.0
22/06:00pm 32.1 26.3 10.8 27 12.4 NW 32 59 17 32 1003.6 1003.6 0.0
22/05:36pm 32.3 26.3 10.9 27 12.4 NNW 33 52 18 28 1003.5 1003.5 0.0
22/05:30pm 31.9 25.5 10.6 27 12.3 NNW 35 52 19 28 1003.5 1003.5 0.0
22/05:07pm 31.1 25.5 8.8 25 12.4 NNW 28 46 15 25 1003.6 1003.6 0.0
22/05:00pm 32.0 27.2 8.9 24 13.0 N 24 41 13 22 1003.8 1003.8 0.0
22/04:30pm 31.5 24.8 7.2 22 13.2 NNW 32 52 17 28 1004.3 1004.3 0.0
22/04:13pm 32.0 26.1 7.6 22 13.4 NNW 28 48 15 26 1004.4 1004.4 0.0
22/04:00pm 31.9 27.1 7.5 22 13.4 NNW 22 33 12 18 1004.5 1004.5 0.0
22/03:30pm 30.5 24.9 7.0 23 12.7 N 26 46 14 25 1005.2 1005.2 0.0
22/03:00pm 30.1 23.5 6.1 22 12.8 NNW 30 41 16 22 1006.0 1006.0 0.0
22/02:30pm 29.1 25.3 7.7 26 11.6 N 17 28 9 15 1006.4 1006.4 0.0
22/02:00pm 28.4 23.9 7.1 26 11.4 NNE 20 30 11 16 1006.6 1006.6 0.0
22/01:30pm 27.5 23.7 9.8 33 9.9 NNE 20 30 11 16 1007.1 1007.1 0.0
22/01:00pm 26.9 23.5 9.3 33 9.7 NNE 17 26 9 14 1007.5 1007.5 0.0
22/12:30pm 26.3 22.1 8.3 32 9.7 NNE 20 32 11 17 1007.9 1007.9 0.0
22/12:00pm 24.1 20.5 10.0 41 7.8 NNE 19 32 10 17 1007.8 1007.8 0.0
22/11:44am 22.0 17.9 10.2 47 6.4 NNE 22 30 12 16 1008.1 1008.1 0.0
22/11:30am 22.1 19.4 10.3 47 6.4 N 15 22 8 12 1010.2 1010.2 0.0
22/11:00am 19.3 17.7 11.6 61 4.2 NNE 11 17 6 9 1009.7 1009.7 0.0
22/10:30am 18.6 17.0 11.4 63 3.9 NNE 11 15 6 8 1009.7 1009.7 0.0
22/10:00am 17.6 15.6 11.4 67 3.4 NNE 13 19 7 10 1009.9 1009.9 0.0
22/09:30am 16.6 15.5 13.1 80 2.0 N 11 15 6 8 1010.1 1010.1 0.0
22/09:00am 15.7 14.9 13.9 89 1.0 NNE 11 17 6 9 1010.4 1010.4 0.0
22/08:30am 14.6 15.3 13.3 92 0.7 NNW 2 4 1 2 1011.1 1011.1 0.0
22/08:00am 13.7 14.5 12.6 93 0.6 CALM 0 0 0 0 1011.0 1011.0 0.0
22/07:30am 13.4 14.1 12.3 93 0.6 CALM 0 0 0 0 1010.7 1010.7 0.0
22/07:00am 12.2 11.8 11.1 93 0.6 NE 4 4 2 2 1010.1 1010.1 0.0
22/06:30am 11.4 11.2 10.3 93 0.6 S 2 4 1 2 1010.5 1010.5 0.0
22/06:00am 11.1 10.4 10.0 93 0.6 SW 4 7 2 4 1010.4 1010.4 0.0
22/05:30am 10.7 10.6 9.6 93 0.6 CALM 0 0 0 0 1009.9 1009.9 0.0
22/05:00am 10.5 10.0 9.4 93 0.6 W 2 4 1 2 1009.7 1009.7 0.0
22/04:30am 10.5 10.4 9.4 93 0.5 CALM 0 0 0 0 1009.6 1009.6 0.0
22/04:00am 10.5 10.4 9.4 93 0.6 CALM 0 0 0 0 1009.9 1009.9 0.0
22/03:30am 10.9 10.9 9.8 93 0.6 CALM 0 2 0 1 1009.9 1009.9 0.0
22/03:00am 11.2 10.9 10.0 92 0.6 NNW 2 4 1 2 1010.2 1010.2 0.0
22/02:30am 11.6 11.4 10.3 92 0.7 NNE 2 4 1 2 1010.2 1010.2 0.0
22/02:00am 11.2 11.3 10.0 92 0.6 CALM 0 0 0 0 1010.8 1010.8 0.0
22/01:30am 11.3 11.4 10.0 92 0.7 CALM 0 0 0 0 1011.3 1011.3 0.0
22/01:00am 11.6 11.4 10.3 92 0.7 NNW 2 4 1 2 1011.8 1011.8 0.0
22/12:30am 11.8 12.0 10.5 92 0.7 CALM 0 0 0 0 1012.4 1012.4 0.0
22/12:00am 11.4 11.5 10.1 92 0.7 CALM 0 0 0 0 1012.7 1012.7 0.0
 
Date/Time
EDT
Tmp

°C
App
Tmp
°C
Dew
Point
°C
Rel
Hum
%
Delta-T

°C
Wind Press
QNH
hPa
Press
MSL
hPa
Rain
since
9 am
mm
Dir
 
Spd
km/h
Gust
km/h
Spd
kts
Gust
kts
21/11:30pm 11.8 12.0 10.4 91 0.7 CALM 0 0 0 0 1012.8 1012.8 0.0
21/11:00pm 12.2 11.5 10.1 87 1.1 SSW 4 6 2 3 1013.3 1013.3 0.0
21/10:30pm 13.0 12.0 10.2 83 1.4 S 6 7 3 4 1013.0 1013.0 0.0
21/10:00pm 13.8 12.5 10.0 78 2.0 SSE 7 13 4 7 1012.7 1012.7 0.0
21/09:30pm 13.9 12.8 9.9 77 2.1 SE 6 9 3 5 1012.8 1012.8 0.0
21/09:00pm 14.2 12.8 9.4 73 2.5 SE 7 11 4 6 1012.8 1012.8 0.0
21/08:30pm 14.4 12.5 9.2 71 2.7 SSE 9 13 5 7 1012.5 1012.5 0.0
21/08:00pm 15.0 12.0 9.1 68 3.0 S 15 20 8 11 1012.3 1012.3 0.0
21/07:30pm 15.9 12.9 9.3 65 3.4 S 15 22 8 12 1011.9 1011.9 0.0
21/07:00pm 16.4 13.0 9.1 62 3.8 S 17 24 9 13 1011.6 1011.6 0.0
21/06:30pm 16.7 13.4 9.4 62 3.8 SSE 17 22 9 12 1011.3 1011.3 0.0
21/06:00pm 17.3 13.9 9.2 59 4.2 S 17 24 9 13 1011.2 1011.2 0.0
21/05:30pm 17.3 13.5 9.2 59 4.2 S 19 26 10 14 1011.1 1011.1 0.0
21/05:00pm 18.7 15.5 9.8 56 4.7 S 17 24 9 13 1011.0 1011.0 0.0
21/04:30pm 18.7 15.4 9.5 55 4.9 S 17 24 9 13 1011.1 1011.1 0.0
21/04:00pm 18.9 15.7 9.9 56 4.8 SSE 17 24 9 13 1011.2 1011.2 0.0
21/03:30pm 18.9 15.3 9.9 56 4.8 S 19 26 10 14 1011.3 1011.3 0.0
21/03:00pm 19.3 15.7 10.0 55 5.0 SSE 19 26 10 14 1011.3 1011.3 0.0
21/02:30pm 19.2 15.5 10.2 56 4.8 SSE 20 30 11 16 1011.2 1011.2 0.0
21/02:00pm 19.7 16.8 10.9 57 4.8 S 17 24 9 13 1011.4 1011.4 0.0
21/01:30pm 21.4 19.2 10.9 51 5.8 WSW 13 24 7 13 1011.4 1011.4 0.0
21/01:00pm 21.1 17.7 7.7 42 6.9 WSW 15 24 8 13 1011.4 1011.4 0.0
21/12:30pm 20.7 17.3 7.7 43 6.7 W 15 28 8 15 1011.4 1011.4 0.0
21/12:00pm 19.2 16.0 6.7 44 6.3 W 13 20 7 11 1011.6 1011.6 0.0
21/11:30am 19.0 15.4 9.8 55 4.9 W 19 26 10 14 1011.7 1011.7 0.0
21/11:00am 18.1 14.2 8.7 54 4.9 W 19 26 10 14 1011.5 1011.5 0.0
21/10:30am 18.4 15.3 10.3 59 4.3 WSW 17 22 9 12 1011.6 1011.6 0.0
21/10:00am 16.7 13.9 9.9 64 3.6 WSW 15 24 8 13 1011.3 1011.3 0.0
21/09:30am 15.8 14.0 11.0 73 2.6 W 11 17 6 9 1010.6 1010.6 0.0
21/09:00am 15.1 13.1 11.5 79 1.9 W 13 19 7 10 1010.7 1010.7 1.4
21/08:30am 14.9 11.8 11.5 80 1.8 W 19 30 10 16 1010.7 1010.7 1.4
21/08:00am 14.9 11.6 11.5 80 1.8 W 20 28 11 15 1010.4 1010.4 1.4
21/07:30am 14.6 11.1 12.1 85 1.4 W 22 30 12 16 1009.8 1009.8 1.4
21/07:00am 14.3 11.2 12.3 88 1.1 W 20 32 11 17 1008.9 1008.9 1.4
21/06:30am 14.5 11.9 13.2 92 0.7 W 19 32 10 17 1008.1 1008.1 1.4
21/06:00am 14.9 12.8 13.6 92 0.7 W 17 30 9 16 1007.8 1007.8 1.4
21/05:30am 15.0 12.6 13.7 92 0.7 W 19 28 10 15 1007.3 1007.3 1.4
21/05:00am 15.1 13.5 13.8 92 0.7 W 15 24 8 13 1006.7 1006.7 1.4
21/04:30am 15.3 12.8 14.0 92 0.7 W 20 33 11 18 1006.3 1006.3 1.4
21/04:00am 15.6 13.0 13.8 89 1.0 W 20 32 11 17 1006.1 1006.1 1.4
21/03:30am 15.5 13.2 14.2 92 0.7 W 19 28 10 15 1005.9 1005.9 1.4
21/03:00am 15.8 14.7 14.3 91 0.9 W 13 20 7 11 1005.9 1005.9 1.4
21/02:30am 16.1 15.2 13.8 86 1.3 WSW 11 20 6 11 1005.8 1005.8 1.4
21/02:00am 16.4 15.9 13.7 84 1.5 WSW 9 17 5 9 1005.6 1005.6 1.4
21/01:30am 17.3 14.8 14.2 82 1.8 WSW 20 32 11 17 1005.3 1005.3 1.4
21/01:00am 19.5 18.1 17.1 86 1.5 W 20 33 11 18 1004.8 1004.8 1.4
21/12:30am 19.3 19.4 17.4 89 1.2 WNW 13 22 7 12 1004.6 1004.6 1.4
21/12:00am 19.1 19.6 17.4 90 1.0 WNW 11 17 6 9 1004.6 1004.6 1.4
 
Date/Time
EDT
Tmp

°C
App
Tmp
°C
Dew
Point
°C
Rel
Hum
%
Delta-T

°C
Wind Press
QNH
hPa
Press
MSL
hPa
Rain
since
9 am
mm
Dir
 
Spd
km/h
Gust
km/h
Spd
kts
Gust
kts
20/11:30pm 19.1 19.8 17.1 88 1.2 WNW 9 15 5 8 1004.7 1004.7 1.4
20/11:00pm 19.5 20.6 16.5 83 1.8 WNW 6 11 3 6 1004.9 1004.9 1.4
20/10:30pm 19.9 19.2 16.5 81 2.0 NNW 15 22 8 12 1004.7 1004.7 1.4
20/10:00pm 20.2 19.1 16.4 79 2.3 NNW 17 26 9 14 1005.1 1005.1 1.4

Latest Capital City Observations: Canberra | Sydney | Melbourne | Brisbane | Adelaide | Perth | Hobart | Darwin

Other Formats:

Comma delimited format used in spreadsheet applications
http://www.bom.gov.au/fwo/IDV60901/IDV60901.94857.axf

JavaScript Object Notation format (JSON) in row-major order
http://www.bom.gov.au/fwo/IDV60901/IDV60901.94857.json